Data for 07/09/2009

Time Sea-Level Adjusted Pressure Absolute Pressure Temperature Relative Humidity Dew Point   
(mb) (inHg) (mb) (inHg) (C) (F) (%) (C) (F)
00:05 1020 30.12 849 25.07 7.6 45.7 81 4.5 40.1
00:10 1019 30.09 849 25.07 7.6 45.7 80 4.3 39.8
00:15 1019 30.09 849 25.07 7.6 45.7 79 4.3 39.7
00:20 1020 30.12 849 25.07 7.7 45.8 79 4.2 39.6
00:25 1020 30.12 849 25.07 7.7 45.8 78 4.2 39.5
00:30 1020 30.12 849 25.07 7.6 45.7 79 4.2 39.6
00:35 1020 30.12 849 25.07 7.3 45.2 81 4.4 39.9
00:40 1020 30.12 849 25.07 7 44.6 82 4.2 39.5
00:45 1020 30.12 849 25.07 6.8 44.3 81 3.9 39
00:50 1020 30.12 849 25.07 7 44.5 79 3.6 38.4
00:55 1020 30.12 849 25.07 7.2 44.9 78 3.6 38.5
01:00 1020 30.12 849 25.07 7.2 45 77 3.5 38.3
01:05 1020 30.12 849 25.07 7.2 45 77 3.5 38.3
01:10 1020 30.12 849 25.07 7.2 44.9 78 3.5 38.3
01:15 1020 30.12 849 25.07 7.1 44.8 78 3.4 38.2
01:20 1020 30.12 849 25.07 7.2 45 75 3.1 37.6
01:25 1020 30.12 849 25.07 7.5 45.6 74 3.2 37.7
01:30 1020 30.12 849 25.07 7.4 45.3 76 3.5 38.3
01:35 1020 30.12 849 25.07 7.2 45 76 3.3 38
01:40 1020 30.12 849 25.07 7.4 45.2 75 3.2 37.7
01:45 1020 30.12 849 25.07 7.5 45.5 74 3.2 37.8
01:50 1020 30.12 849 25.07 7.4 45.2 76 3.4 38.2
01:55 1020 30.12 849 25.07 7 44.7 77 3.4 38.1
02:00 1020 30.12 849 25.07 6.8 44.2 78 3.3 38
02:05 1020 30.12 849 25.07 6.7 44.1 79 3.4 38.1
02:10 1020 30.12 849 25.07 6.6 43.9 80 3.4 38.1
02:15 1020 30.12 849 25.07 6.6 43.8 80 3.4 38.1
02:20 1020 30.12 849 25.07 6.5 43.8 80 3.3 38
02:25 1020 30.12 849 25.07 6.6 43.8 80 3.3 38
02:30 1020 30.12 849 25.07 6.4 43.5 80 3.2 37.8
02:35 1020 30.12 849 25.07 6.4 43.5 80 3.1 37.6
02:40 1020 30.12 849 25.07 6.4 43.5 79 3.1 37.5
02:45 1020 30.12 849 25.07 6.4 43.5 79 3 37.4
02:50 1019 30.09 849 25.07 6.3 43.4 79 2.9 37.3
02:55 1019 30.09 849 25.07 6.3 43.3 79 2.9 37.2
03:00 1019 30.09 849 25.07 6.2 43.1 79 2.7 36.9
03:05 1019 30.09 849 25.07 6.2 43.1 79 2.8 37.1
03:10 1019 30.09 849 25.07 6.1 43 79 2.8 37
03:15 1019 30.09 849 25.07 6.1 42.9 79 2.8 37
03:20 1019 30.09 849 25.07 5.9 42.6 79 2.5 36.5
03:25 1019 30.09 849 25.07 6.1 43.1 76 2.3 36.1
03:30 1019 30.09 849 25.07 6.5 43.7 76 2.5 36.5
03:35 1019 30.09 849 25.07 6.4 43.5 76 2.4 36.3
03:40 1019 30.09 849 25.07 6.5 43.6 75 2.4 36.4
03:45 1019 30.09 849 25.07 6.4 43.5 76 2.4 36.3
03:50 1019 30.09 849 25.07 6.2 43.2 76 2.2 36
03:55 1019 30.09 849 25.07 6.4 43.6 74 2.2 36
04:00 1019 30.09 849 25.07 6.5 43.7 74 2.3 36.1
04:05 1019 30.09 849 25.07 6.4 43.6 74 2.2 35.9
04:10 1019 30.09 849 25.07 6.3 43.3 75 2.2 36
04:15 1020 30.12 849 25.07 6.1 43.1 75 2 35.6
04:20 1019 30.09 849 25.07 6.3 43.3 74 2 35.6
04:25 1020 30.12 849 25.07 6.2 43.1 75 2 35.7
04:30 1019 30.09 849 25.07 6 42.8 76 2 35.6
04:35 1019 30.09 849 25.07 5.9 42.6 76 2 35.6
04:40 1019 30.09 849 25.07 5.7 42.2 78 2.1 35.8
04:45 1019 30.09 849 25.07 5.4 41.7 77 1.8 35.2
04:50 1019 30.09 849 25.07 5.6 42.1 78 2 35.6
04:55 1019 30.09 849 25.07 5.6 42.1 76 1.8 35.2
05:00 1019 30.09 849 25.07 5.7 42.3 77 1.9 35.5
05:05 1019 30.09 849 25.07 5.7 42.3 76 1.9 35.4
05:10 1020 30.12 849 25.07 5.7 42.2 77 2 35.6
05:15 1019 30.09 849 25.07 5.4 41.7 77 1.6 34.9
05:20 1019 30.09 849 25.07 5.6 42.2 77 1.9 35.4
05:25 1019 30.09 849 25.07 5.5 41.9 78 2 35.6
05:30 1019 30.09 849 25.07 5.3 41.5 79 1.9 35.4
05:35 1019 30.09 849 25.07 5.2 41.4 79 1.8 35.3
05:40 1020 30.12 849 25.07 5.2 41.3 79 1.9 35.3
05:45 1020 30.12 849 25.07 5.2 41.4 78 1.7 35.1
05:50 1020 30.12 849 25.07 5.3 41.5 78 1.8 35.2
05:55 1020 30.12 849 25.07 5.3 41.5 78 1.7 35.1
06:00 1020 30.12 849 25.07 5.5 41.9 76 1.7 35
06:05 1020 30.12 849 25.07 5.8 42.4 75 1.6 34.9
06:10 1020 30.12 849 25.07 6 42.8 74 1.8 35.2
06:15 1020 30.12 849 25.07 6 42.7 75 1.9 35.4
06:20 1020 30.12 849 25.07 5.8 42.5 76 1.9 35.4
06:25 1020 30.12 849 25.07 5.9 42.6 75 1.9 35.4
06:30 1020 30.12 849 25.07 6 42.9 76 2.1 35.8
06:35 1020 30.12 849 25.07 5.8 42.5 77 2 35.7
06:40 1020 30.12 849 25.07 5.8 42.4 77 2 35.6
06:45 1020 30.12 849 25.07 5.8 42.4 76 2 35.5
06:50 1020 30.12 849 25.07 6 42.8 75 1.9 35.4
06:55 1020 30.12 849 25.07 6.2 43.2 75 2 35.6
07:00 1020 30.12 849 25.07 6.4 43.4 74 2 35.6
07:05 1020 30.12 849 25.07 6.5 43.7 73 2.1 35.8
07:10 1020 30.12 849 25.07 6.7 44.1 74 2.4 36.2
07:15 1020 30.12 849 25.07 6.8 44.2 72 2.2 35.9
07:20 1020 30.12 849 25.07 7 44.6 72 2.3 36.1
07:25 1020 30.12 849 25.07 7.4 45.4 70 2.4 36.3
07:30 1020 30.12 849 25.07 7.7 45.9 71 2.8 37
07:35 1020 30.12 849 25.07 8 46.4 68 2.5 36.5
07:40 1020 30.12 849 25.07 8.3 46.9 68 2.8 37
07:45 1020 30.12 849 25.07 8.8 47.8 68 3.2 37.8
07:50 1020 30.12 849 25.07 9.3 48.7 65 3 37.5
07:55 1020 30.12 849 25.07 9.7 49.5 63 3.1 37.6
08:00 1020 30.12 849 25.07 9.6 49.2 64 3 37.4
08:05 1020 30.12 849 25.07 10 49.9 60 2.5 36.5
08:10 1020 30.12 849 25.07 10.8 51.4 58 2.8 37.1
08:15 1020 30.12 850 25.1 11.5 52.7 55 2.9 37.2
08:20 1020 30.12 849 25.07 11.7 53.1 54 2.7 36.9
08:25 1020 30.12 849 25.07 12.3 54.2 52 2.8 37
08:30 1020 30.12 849 25.07 12.2 53.9 56 3.7 38.6
08:35 1020 30.12 849 25.07 11.9 53.5 57 3.7 38.6
08:40 1020 30.12 849 25.07 12.2 54 57 4 39.3
08:45 1020 30.12 849 25.07 12 53.6 57 3.9 39
08:50 1020 30.12 849 25.07 11.8 53.2 57 3.6 38.5
08:55 1020 30.12 849 25.07 11.9 53.5 56 3.5 38.2
09:00 1020 30.12 849 25.07 12.2 53.9 56 3.6 38.5
09:05 1020 30.12 849 25.07 12.4 54.3 54 3.4 38.1
09:10 1020 30.12 849 25.07 13 55.3 52 3.5 38.3
09:15 1020 30.12 849 25.07 13.5 56.4 51 3.7 38.7
09:20 1020 30.12 849 25.07 13.1 55.7 50 3 37.4
09:25 1020 30.12 849 25.07 12.9 55.2 51 3.1 37.5
09:30 1020 30.12 849 25.07 13.2 55.8 50 3.2 37.7
09:35 1020 30.12 849 25.07 13.5 56.3 48 2.9 37.2
09:40 1020 30.12 849 25.07 13.8 56.8 47 2.8 37.1
09:45 1020 30.12 849 25.07 13.9 57.1 49 3.4 38.1
09:50 1020 30.12 849 25.07 14.2 57.6 49 3.6 38.5
09:55 1020 30.12 849 25.07 15.2 59.3 47 3.9 39.1
10:00 1020 30.12 849 25.07 15.3 59.5 48 4.4 39.9
10:05 1020 30.12 849 25.07 15.3 59.5 47 4.3 39.7
10:10 1020 30.12 849 25.07 15.8 60.4 47 4.5 40.1
10:15 1020 30.12 849 25.07 16 60.7 45 4.2 39.6
10:20 1020 30.12 849 25.07 15.8 60.4 48 4.9 40.9
10:25 1020 30.12 849 25.07 16.3 61.3 45 4.3 39.8
10:30 1020 30.12 849 25.07 16.7 62 43 4.2 39.6
10:35 1020 30.12 849 25.07 16.9 62.5 42 4 39.2
10:40 1020 30.12 849 25.07 16.7 62 43 4.1 39.4
10:45 1020 30.12 849 25.07 17.2 63 41 4 39.2
10:50 1020 30.12 849 25.07 16.8 62.2 40 3.3 38
10:55 1020 30.12 849 25.07 16.3 61.3 46 4.6 40.4
11:00 1020 30.12 849 25.07 15.8 60.4 44 3.6 38.5
11:05 1020 30.12 849 25.07 15.7 60.2 44 3.5 38.3
11:10 1020 30.12 849 25.07 16.1 61 39 2.2 35.9
11:15 1020 30.12 849 25.07 15.4 59.7 42 2.7 36.9
11:20 1020 30.12 849 25.07 15.2 59.4 44 3 37.5
11:25 1020 30.12 849 25.07 15.6 60 44 3.5 38.4
11:30 1020 30.12 849 25.07 15.9 60.6 41 2.9 37.2
11:35 1020 30.12 849 25.07 17.3 63.2 37 2.6 36.7
11:40 1020 30.12 849 25.07 16.9 62.5 37 2.2 35.9
11:45 1020 30.12 849 25.07 17.5 63.4 38 3.1 37.5
11:50 1020 30.12 849 25.07 17 62.6 40 3.4 38.1
11:55 1020 30.12 849 25.07 17.2 63 36 2.3 36.1
12:00 1020 30.12 849 25.07 16.1 60.9 39 2.2 36
12:05 1020 30.12 849 25.07 17.2 62.9 38 2.7 36.8
12:10 1020 30.12 849 25.07 16.8 62.2 37 2.1 35.7
12:15 1020 30.12 849 25.07 17.8 64 30 0.2 32.3
12:20 1020 30.12 849 25.07 17.4 63.3 37 2.6 36.8
12:25 1020 30.12 849 25.07 17.8 64 29 -0.2 31.6
12:30 1020 30.12 849 25.07 18.3 64.9 32 1.3 34.3
12:35 1020 30.12 849 25.07 17.9 64.2 29 -0.4 31.3
12:40 1020 30.12 849 25.07 19 66.2 28 0.1 32.1
12:45 1020 30.12 849 25.07 19.4 67 28 0.5 32.9
12:50 1020 30.12 849 25.07 19.3 66.7 29 1 33.8
12:55 1020 30.12 849 25.07 19.6 67.3 28 0.9 33.6
13:00 1020 30.12 849 25.07 19.8 67.7 28 1.1 33.9
13:05 1020 30.12 849 25.07 18.8 65.9 28 -0.2 31.7
13:10 1020 30.12 849 25.07 19 66.2 28 -0 32
13:15 1020 30.12 849 25.07 19.5 67 28 0.6 33
13:20 1020 30.12 849 25.07 19.6 67.3 25 -0.8 30.5
13:25 1020 30.12 849 25.07 19.4 66.9 25 -0.8 30.5
13:30 1020 30.12 849 25.07 19.3 66.7 26 -0.6 30.8
13:35 1020 30.12 849 25.07 19.9 67.8 25 -0.6 30.9
13:40 1020 30.12 849 25.07 19.9 67.9 25 -0.8 30.6
13:45 1020 30.12 849 25.07 19.9 67.8 26 -0.1 31.8
13:50 1020 30.12 849 25.07 20.1 68.1 26 0.1 32.3
13:55 1020 30.12 849 25.07 20.3 68.5 27 0.6 33.2
14:00 1020 30.12 849 25.07 20.2 68.3 26 0.4 32.7
14:05 1020 30.12 849 25.07 20.2 68.3 26 0.4 32.8
14:10 1020 30.12 849 25.07 19.7 67.4 28 0.6 33.1
14:15 1020 30.12 849 25.07 20.1 68.1 26 0.2 32.3
14:20 1020 30.12 849 25.07 20 68 28 1 33.7
14:25 1020 30.12 849 25.07 20.4 68.6 26 0.2 32.4
14:30 1020 30.12 849 25.07 20.5 68.9 26 0.5 32.9
14:35 1020 30.12 849 25.07 19.7 67.4 28 0.7 33.2
14:40 1020 30.12 849 25.07 20.3 68.6 27 0.7 33.3
14:45 1020 30.12 849 25.07 20.6 69 27 1.3 34.4
14:50 1020 30.12 849 25.07 20.1 68.3 27 0.8 33.5
14:55 1020 30.12 849 25.07 20.7 69.2 27 1 33.7
15:00 1020 30.12 849 25.07 19.7 67.4 28 0.7 33.3
15:05 1020 30.12 849 25.07 20.5 68.9 25 0.2 32.4
15:10 1020 30.12 849 25.07 20.6 69 26 0.4 32.8
15:15 1019 30.09 849 25.07 20.3 68.6 26 0.3 32.6
15:20 1019 30.09 849 25.07 21 69.8 26 0.7 33.2
15:25 1019 30.09 849 25.07 21.1 69.9 26 0.9 33.5
15:30 1019 30.09 849 25.07 20.5 69 27 1 33.8
15:35 1019 30.09 849 25.07 20.8 69.5 25 0.2 32.4
15:40 1019 30.09 849 25.07 21 69.8 25 0.5 32.9
15:45 1019 30.09 849 25.07 21.6 70.9 25 0.7 33.2
15:50 1019 30.09 849 25.07 21.4 70.4 25 0.6 33
15:55 1019 30.09 849 25.07 21.1 70.1 26 1 33.8
16:00 1019 30.09 848 25.04 21.9 71.5 25 1.4 34.6
16:05 1019 30.09 848 25.04 21 69.7 25 0.6 33.1
16:10 1019 30.09 848 25.04 19.9 67.9 28 1.2 34.2
16:15 1019 30.09 849 25.07 20.1 68.3 26 0.4 32.7
16:20 1019 30.09 849 25.07 19.2 66.5 29 0.8 33.4
16:25 1019 30.09 848 25.04 19.6 67.2 27 0.4 32.8
16:30 1019 30.09 848 25.04 20.1 68.1 28 1 33.8
16:35 1019 30.09 848 25.04 21.2 70.1 26 1.1 34
16:40 1019 30.09 848 25.04 21.4 70.5 26 1.2 34.2
16:45 1019 30.09 849 25.07 21.1 69.9 26 1.1 33.9
16:50 1019 30.09 849 25.07 20.4 68.7 27 1.2 34.1
16:55 1019 30.09 849 25.07 20.2 68.4 27 0.6 33
17:00 1019 30.09 848 25.04 20.6 69.1 27 1.2 34.2
17:05 1019 30.09 848 25.04 21.7 71.1 24 0.6 33.1
17:10 1019 30.09 848 25.04 22.2 71.9 24 0.7 33.3
17:15 1019 30.09 848 25.04 22 71.6 25 1.5 34.6
17:20 1019 30.09 848 25.04 22.4 72.2 25 1.6 34.8
17:25 1019 30.09 849 25.07 22.4 72.2 23 0.5 32.8
17:30 1019 30.09 849 25.07 22.1 71.8 23 0.4 32.8
17:35 1019 30.09 849 25.07 22.4 72.3 24 0.8 33.4
17:40 1019 30.09 849 25.07 22.4 72.3 24 1.1 33.9
17:45 1019 30.09 848 25.04 21.3 70.3 25 0.4 32.8
17:50 1019 30.09 849 25.07 22.2 71.9 24 0.8 33.4
17:55 1019 30.09 849 25.07 22.5 72.5 24 1.3 34.4
18:00 1019 30.09 849 25.07 21.5 70.7 26 1.2 34.1
18:05 1019 30.09 849 25.07 21 69.9 26 1 33.7
18:10 1019 30.09 849 25.07 21.7 71.1 25 0.9 33.6
18:15 1019 30.09 849 25.07 21.6 70.8 25 1.2 34.1
18:20 1019 30.09 849 25.07 21.2 70.1 27 1.5 34.7
18:25 1020 30.12 849 25.07 21.1 69.9 28 1.8 35.3
18:30 1019 30.09 849 25.07 21 69.7 27 1.5 34.8
18:35 1019 30.09 849 25.07 20.9 69.5 27 1.6 34.8
18:40 1019 30.09 849 25.07 20.5 68.8 28 1.3 34.3
18:45 1019 30.09 849 25.07 20.2 68.3 27 0.9 33.6
18:50 1020 30.12 849 25.07 19.8 67.6 28 1 33.8
18:55 1020 30.12 849 25.07 19.5 67.2 29 1 33.7
19:00 1020 30.12 849 25.07 19.4 67 29 1 33.8
19:05 1020 30.12 849 25.07 19.5 67 29 1.3 34.3
19:10 1020 30.12 849 25.07 19.4 67 30 1.6 34.8
19:15 1020 30.12 849 25.07 18.7 65.6 38 4.2 39.6
19:20 1020 30.12 850 25.1 17 62.7 44 4.9 40.9
19:25 1021 30.15 850 25.1 15.9 60.7 47 4.7 40.5
19:30 1021 30.15 850 25.1 15.4 59.7 53 5.9 42.6
19:35 1021 30.15 850 25.1 14.9 58.9 52 5.2 41.3
19:40 1021 30.15 850 25.1 14.7 58.4 57 6.3 43.4
19:45 1021 30.15 851 25.13 14.5 58.2 58 6.4 43.5
19:50 1022 30.18 851 25.13 14.7 58.4 56 6 42.9
19:55 1022 30.18 851 25.13 14.6 58.3 55 5.8 42.5
20:00 1022 30.18 851 25.13 14.2 57.5 58 6.1 43.1
20:05 1022 30.18 851 25.13 13.9 57 55 5.1 41.2
20:10 1022 30.18 851 25.13 13.8 56.8 56 5.3 41.5
20:15 1022 30.18 851 25.13 14 57.2 56 5.4 41.8
20:20 1022 30.18 851 25.13 14.2 57.5 54 5.1 41.2
20:25 1022 30.18 851 25.13 14.4 57.9 52 4.8 40.7
20:30 1022 30.18 851 25.13 14.5 58 53 5.1 41.3
20:35 1022 30.18 851 25.13 14.2 57.6 55 5.5 41.8
20:40 1022 30.18 851 25.13 13.8 56.9 63 6.9 44.3
20:45 1022 30.18 851 25.13 13.3 55.9 63 6.4 43.5
20:50 1022 30.18 851 25.13 13.2 55.8 66 7 44.7
20:55 1022 30.18 851 25.13 12.9 55.3 70 7.6 45.7
21:00 1022 30.18 851 25.13 12.6 54.6 71 7.5 45.5
21:05 1022 30.18 851 25.13 12.4 54.3 71 7.4 45.4
21:10 1022 30.18 852 25.16 12.4 54.2 72 7.4 45.4
21:15 1022 30.18 852 25.16 12.4 54.2 71 7.3 45.2
21:20 1023 30.21 852 25.16 12.5 54.5 71 7.4 45.3
21:25 1023 30.21 852 25.16 12.6 54.7 71 7.4 45.4
21:30 1023 30.21 852 25.16 12.4 54.3 72 7.6 45.7
21:35 1023 30.21 852 25.16 12.2 53.9 75 7.9 46.3
21:40 1023 30.21 852 25.16 11.9 53.4 76 7.7 45.9
21:45 1023 30.21 852 25.16 11.8 53.3 76 7.7 45.9
21:50 1023 30.21 852 25.16 11.8 53.3 76 7.7 45.9
21:55 1023 30.21 852 25.16 11.9 53.4 75 7.6 45.6
22:00 1023 30.21 852 25.16 12 53.5 74 7.5 45.5
22:05 1023 30.21 852 25.16 11.7 53.1 77 7.9 46.1
22:10 1023 30.21 852 25.16 11.5 52.7 76 7.5 45.6
22:15 1023 30.21 852 25.16 11.5 52.7 76 7.4 45.4
22:20 1023 30.21 852 25.16 11.5 52.8 76 7.4 45.3
22:25 1023 30.21 852 25.16 11.6 52.8 74 7.2 45
22:30 1023 30.21 852 25.16 11.6 52.9 76 7.6 45.7
22:35 1023 30.21 852 25.16 11.4 52.4 78 7.6 45.8
22:40 1023 30.21 852 25.16 11.3 52.3 78 7.5 45.6
22:45 1023 30.21 852 25.16 11.3 52.3 78 7.5 45.5
22:50 1023 30.21 852 25.16 11.2 52.2 78 7.5 45.6
22:55 1023 30.21 852 25.16 11.3 52.3 78 7.6 45.7
23:00 1023 30.21 852 25.16 11.2 52.2 79 7.8 46
23:05 1022 30.18 852 25.16 11.1 52 79 7.6 45.7
23:10 1022 30.18 852 25.16 11 51.8 81 7.8 46.1
23:15 1023 30.21 852 25.16 10.9 51.6 81 7.8 46.1
23:20 1023 30.21 852 25.16 10.8 51.5 81 7.6 45.8
23:25 1023 30.21 852 25.16 11 51.8 79 7.5 45.6
23:30 1023 30.21 852 25.16 11 51.9 80 7.7 45.8
23:35 1023 30.21 852 25.16 11 51.8 79 7.6 45.6
23:40 1023 30.21 852 25.16 11 51.9 79 7.6 45.7
23:45 1023 30.21 852 25.16 10.9 51.6 82 7.9 46.3
23:50 1023 30.21 852 25.16 10.6 51.1 85 8.2 46.7
23:55 1023 30.21 852 25.16 10.5 50.9 83 7.8 46
24:00 1023 30.21 852 25.16 10.4 50.7 84 7.7 45.9